createdAt,value
2019-02-17T00:01:25.360Z,24.93
2019-02-17T00:03:53.890Z,25.37
2019-02-17T00:06:22.710Z,23.50
2019-02-17T00:08:51.235Z,26.53
2019-02-17T00:11:19.766Z,31.17
2019-02-17T00:13:48.208Z,28.47
2019-02-17T00:16:16.640Z,24.23
2019-02-17T00:18:45.110Z,30.23
2019-02-17T00:21:13.639Z,25.10
2019-02-17T00:23:42.363Z,26.20
2019-02-17T00:26:10.892Z,34.17
2019-02-17T00:28:39.323Z,32.60
2019-02-17T00:31:07.760Z,27.17
2019-02-17T00:33:36.222Z,27.00
2019-02-17T00:36:04.657Z,31.70
2019-02-17T00:38:33.093Z,28.30
2019-02-17T00:41:01.566Z,32.10
2019-02-17T00:43:30.028Z,34.90
2019-02-17T00:45:58.814Z,28.37
2019-02-17T00:48:27.585Z,29.37
2019-02-17T00:50:56.373Z,27.60
2019-02-17T00:53:24.809Z,30.00
2019-02-17T00:55:53.357Z,30.80
2019-02-17T00:58:21.793Z,31.37
2019-02-17T01:00:50.534Z,29.30
2019-02-17T01:03:19.000Z,28.50
2019-02-17T01:05:47.798Z,27.13
2019-02-17T01:08:16.238Z,26.90
2019-02-17T01:10:44.707Z,28.77
2019-02-17T01:13:13.138Z,25.17
2019-02-17T01:15:41.908Z,27.33
2019-02-17T01:18:10.384Z,26.07
2019-02-17T01:20:39.178Z,26.23
2019-02-17T01:23:07.615Z,27.17
2019-02-17T01:25:36.248Z,22.80
2019-02-17T01:28:04.824Z,25.53
2019-02-17T01:30:33.257Z,20.93
2019-02-17T01:33:01.733Z,25.93
2019-02-17T01:35:30.153Z,15.53
2019-02-17T01:37:58.789Z,21.77
2019-02-17T01:40:27.241Z,23.93
2019-02-17T01:42:55.677Z,29.43
2019-02-17T01:45:24.182Z,21.73
2019-02-17T01:47:52.834Z,17.40
2019-02-17T01:50:21.270Z,25.77
2019-02-17T01:52:50.070Z,20.33
2019-02-17T01:55:18.538Z,22.93
2019-02-17T01:57:47.073Z,25.87
2019-02-17T02:00:16.448Z,24.50
2019-02-17T02:02:44.930Z,28.70
2019-02-17T02:05:13.446Z,20.50
2019-02-17T02:07:41.982Z,20.07
2019-02-17T02:10:10.726Z,23.60
2019-02-17T02:12:39.231Z,26.37
2019-02-17T02:15:10.410Z,30.33
2019-02-17T02:17:38.951Z,29.43
2019-02-17T02:20:12.987Z,27.03
2019-02-17T02:22:41.699Z,29.37
2019-02-17T02:25:10.697Z,30.23
2019-02-17T02:27:39.133Z,25.97
2019-02-17T02:30:10.809Z,27.47
2019-02-17T02:32:39.382Z,25.93
2019-02-17T02:35:07.955Z,24.53
2019-02-17T02:37:36.457Z,29.63
2019-02-17T02:40:05.984Z,25.27
2019-02-17T02:42:34.441Z,33.20
2019-02-17T02:45:03.040Z,28.70
2019-02-17T02:47:31.513Z,29.77
2019-02-17T02:49:59.945Z,26.33
2019-02-17T02:52:28.385Z,37.60
2019-02-17T02:54:56.940Z,26.50
2019-02-17T02:57:25.373Z,28.77
2019-02-17T02:59:53.808Z,41.20
2019-02-17T03:02:22.574Z,28.20
2019-02-17T03:04:51.006Z,26.80
2019-02-17T03:07:19.510Z,24.13
2019-02-17T03:09:47.970Z,30.07
2019-02-17T03:12:16.408Z,30.63
2019-02-17T03:14:44.848Z,30.03
2019-02-17T03:17:13.309Z,25.57
2019-02-17T03:19:41.743Z,33.60
2019-02-17T03:22:10.180Z,19.70
2019-02-17T03:24:39.007Z,30.47
2019-02-17T03:27:07.441Z,23.10
2019-02-17T03:29:35.882Z,22.87
2019-02-17T03:32:04.369Z,29.97
2019-02-17T03:34:32.795Z,32.33
2019-02-17T03:37:01.232Z,25.40
2019-02-17T03:39:30.097Z,31.97
2019-02-17T03:41:58.705Z,24.67
2019-02-17T03:44:27.213Z,19.97
2019-02-17T03:46:55.949Z,20.03
2019-02-17T03:49:24.485Z,18.50
2019-02-17T03:51:52.931Z,25.43
2019-02-17T03:54:21.393Z,27.90
2019-02-17T03:56:49.839Z,22.07
2019-02-17T03:59:18.273Z,18.63
2019-02-17T04:01:46.994Z,22.60
2019-02-17T04:04:15.428Z,20.60
2019-02-17T04:07:03.237Z,20.30
2019-02-17T04:09:50.856Z,25.13
2019-02-17T04:12:19.497Z,20.23
2019-02-17T04:14:47.935Z,17.80
2019-02-17T04:17:16.718Z,20.00
2019-02-17T04:20:04.506Z,21.07
2019-02-17T04:22:32.943Z,24.87
2019-02-17T04:25:01.379Z,19.90
2019-02-17T04:27:29.842Z,20.83
2019-02-17T04:29:58.370Z,21.80
2019-02-17T04:32:26.802Z,21.37
2019-02-17T04:34:55.262Z,27.37
2019-02-17T04:37:23.795Z,27.40
2019-02-17T04:39:52.227Z,26.27
2019-02-17T04:42:20.711Z,31.67
2019-02-17T04:44:49.163Z,25.43
2019-02-17T04:47:17.718Z,24.63
2019-02-17T04:49:46.184Z,31.90
2019-02-17T04:52:14.617Z,26.30
2019-02-17T04:54:43.052Z,43.67
2019-02-17T04:57:11.521Z,34.70
2019-02-17T04:59:39.953Z,28.63
2019-02-17T05:02:08.545Z,29.90
2019-02-17T05:04:37.318Z,29.40
2019-02-17T05:07:05.767Z,34.53
2019-02-17T05:09:34.198Z,37.87
2019-02-17T05:12:02.754Z,33.07
2019-02-17T05:14:31.346Z,57.20
2019-02-17T05:16:59.864Z,76.37
2019-02-17T05:19:28.341Z,83.23
2019-02-17T05:21:56.779Z,81.70
2019-02-17T05:24:25.218Z,93.10
2019-02-17T05:26:53.701Z,99.40
2019-02-17T05:29:22.142Z,81.67
2019-02-17T05:31:50.924Z,154.17
2019-02-17T05:34:19.659Z,140.37
2019-02-17T05:36:48.104Z,132.97
2019-02-17T05:39:16.622Z,123.17
2019-02-17T05:41:45.105Z,101.63
2019-02-17T05:44:13.582Z,143.50
2019-02-17T05:46:42.455Z,127.93
2019-02-17T05:49:11.160Z,119.23
2019-02-17T05:51:39.600Z,87.03
2019-02-17T05:54:08.380Z,102.97
2019-02-17T05:56:36.867Z,139.93
2019-02-17T05:59:05.397Z,108.37
2019-02-17T06:01:33.835Z,99.23
2019-02-17T06:04:02.303Z,82.20
2019-02-17T06:06:30.751Z,126.97
2019-02-17T06:08:59.199Z,98.73
2019-02-17T06:11:28.265Z,99.67
2019-02-17T06:13:56.708Z,64.23
2019-02-17T06:16:25.428Z,114.97
2019-02-17T06:18:53.913Z,83.07
2019-02-17T06:21:22.694Z,53.67
2019-02-17T06:23:51.156Z,81.97
2019-02-17T06:26:20.559Z,123.03
2019-02-17T06:28:49.087Z,42.40
2019-02-17T06:31:17.533Z,70.00
2019-02-17T06:33:46.335Z,78.57
2019-02-17T06:36:14.873Z,108.77
2019-02-17T06:38:43.706Z,79.20
2019-02-17T06:41:12.183Z,74.47
2019-02-17T06:43:40.639Z,62.67
2019-02-17T06:46:10.808Z,52.97
2019-02-17T06:48:39.278Z,42.63
2019-02-17T06:51:07.793Z,64.70
2019-02-17T06:53:36.232Z,62.77
2019-02-17T06:56:08.987Z,67.13
2019-02-17T06:58:36.880Z,112.33
2019-02-17T07:01:05.326Z,114.83
2019-02-17T07:03:33.792Z,86.70
2019-02-17T07:06:03.917Z,101.73
2019-02-17T07:08:33.264Z,75.53
2019-02-17T07:11:01.732Z,84.27
2019-02-17T07:13:30.166Z,66.13
2019-02-17T07:15:58.622Z,64.60
2019-02-17T07:18:27.072Z,59.87
2019-02-17T07:20:55.534Z,60.87
2019-02-17T07:23:23.983Z,84.83
2019-02-17T07:25:52.460Z,65.73
2019-02-17T07:28:20.902Z,57.60
2019-02-17T07:30:49.367Z,97.17
2019-02-17T07:33:17.855Z,81.20
2019-02-17T07:35:46.288Z,40.30
2019-02-17T07:38:14.739Z,75.00
2019-02-17T07:40:43.208Z,44.27
2019-02-17T07:43:11.998Z,64.70
2019-02-17T07:45:40.435Z,94.50
2019-02-17T07:48:08.915Z,55.63
2019-02-17T07:50:37.349Z,58.60
2019-02-17T07:53:06.127Z,45.10
2019-02-17T07:55:35.816Z,44.33
2019-02-17T07:58:04.252Z,45.07
2019-02-17T08:00:32.691Z,41.93
2019-02-17T08:03:01.167Z,38.43
2019-02-17T08:05:29.697Z,35.20
2019-02-17T08:07:58.457Z,33.10
2019-02-17T08:10:26.961Z,28.43
2019-02-17T08:12:55.517Z,36.97
2019-02-17T08:15:23.959Z,40.90
2019-02-17T08:17:52.418Z,40.33
2019-02-17T08:20:20.862Z,34.23
2019-02-17T08:22:49.299Z,39.60
2019-02-17T08:25:21.801Z,40.10
2019-02-17T08:27:47.940Z,41.67
2019-02-17T08:30:16.541Z,35.93
2019-02-17T08:32:45.126Z,44.40
2019-02-17T08:35:13.625Z,36.27
2019-02-17T08:37:42.107Z,38.30
2019-02-17T08:40:11.361Z,46.40
2019-02-17T08:42:39.879Z,29.97
2019-02-17T08:45:11.609Z,34.47
2019-02-17T08:47:40.190Z,37.27
2019-02-17T08:50:11.175Z,37.40
2019-02-17T08:52:39.694Z,36.43
2019-02-17T08:55:10.313Z,39.30
2019-02-17T08:57:38.821Z,34.10
2019-02-17T09:00:13.441Z,30.57
2019-02-17T09:02:41.979Z,31.50
2019-02-17T09:05:10.544Z,30.07
2019-02-17T09:07:39.057Z,34.40
2019-02-17T09:10:12.882Z,30.37
2019-02-17T09:12:41.316Z,34.80
2019-02-17T09:15:11.794Z,36.30
2019-02-17T09:17:40.282Z,29.57
2019-02-17T09:20:10.662Z,34.50
2019-02-17T09:22:39.094Z,28.40
2019-02-17T09:25:10.110Z,27.87
2019-02-17T09:27:38.606Z,40.77
2019-02-17T09:30:13.028Z,46.93
2019-02-17T09:32:41.497Z,41.50
2019-02-17T09:35:09.996Z,32.00
2019-02-17T09:37:38.452Z,35.67
2019-02-17T09:40:10.632Z,31.00
2019-02-17T09:42:39.446Z,31.17
2019-02-17T09:45:11.576Z,30.63
2019-02-17T09:47:40.034Z,29.77
2019-02-17T09:50:11.504Z,32.30
2019-02-17T09:52:40.084Z,30.00
2019-02-17T09:55:10.500Z,33.60
2019-02-17T09:57:39.757Z,31.60
2019-02-17T10:00:11.200Z,28.33
2019-02-17T10:02:39.733Z,28.83
2019-02-17T10:05:10.197Z,26.93
2019-02-17T10:07:38.804Z,32.47
2019-02-17T10:10:15.819Z,30.00
2019-02-17T10:12:44.664Z,32.63
2019-02-17T10:15:14.032Z,31.43
2019-02-17T10:17:42.917Z,34.00
2019-02-17T10:20:13.930Z,30.07
2019-02-17T10:22:42.352Z,31.33
2019-02-17T10:25:11.344Z,35.13
2019-02-17T10:27:39.774Z,30.60
2019-02-17T10:30:16.450Z,31.60
2019-02-17T10:32:44.945Z,28.87
2019-02-17T10:35:13.548Z,30.97
2019-02-17T10:37:42.029Z,24.57
2019-02-17T10:40:15.617Z,28.10
2019-02-17T10:42:44.373Z,30.20
2019-02-17T10:45:13.696Z,24.77
2019-02-17T10:47:42.124Z,29.23
2019-02-17T10:50:12.294Z,26.50
2019-02-17T10:52:40.754Z,28.37
2019-02-17T10:55:11.574Z,27.00
2019-02-17T10:57:40.268Z,25.50
2019-02-17T11:00:14.848Z,28.80
2019-02-17T11:02:46.946Z,27.17
2019-02-17T11:05:13.905Z,28.00
2019-02-17T11:07:42.745Z,35.67
2019-02-17T11:10:13.181Z,29.37
2019-02-17T11:12:41.681Z,26.30
2019-02-17T11:15:16.276Z,34.07
2019-02-17T11:17:44.705Z,32.23
2019-02-17T11:20:13.369Z,28.07
2019-02-17T11:22:41.904Z,29.63
2019-02-17T11:25:10.870Z,30.20
2019-02-17T11:27:39.306Z,28.70
2019-02-17T11:30:11.177Z,26.90
2019-02-17T11:32:39.604Z,24.17
2019-02-17T11:35:08.471Z,28.47
2019-02-17T11:37:37.048Z,25.30
2019-02-17T11:40:08.621Z,33.10
2019-02-17T11:42:37.051Z,27.10
2019-02-17T11:45:19.885Z,30.50
2019-02-17T11:47:48.552Z,21.73
2019-02-17T11:50:16.980Z,32.87
2019-02-17T11:52:45.438Z,29.33
2019-02-17T11:55:15.408Z,25.60
2019-02-17T11:57:43.909Z,25.40
2019-02-17T12:00:18.745Z,25.90
2019-02-17T12:02:47.177Z,25.60
2019-02-17T12:05:15.676Z,24.70
2019-02-17T12:07:44.272Z,26.87
2019-02-17T12:10:13.045Z,27.40
2019-02-17T12:12:41.812Z,36.50
2019-02-17T12:15:12.853Z,30.73
2019-02-17T12:17:41.366Z,37.27
2019-02-17T12:20:33.019Z,29.83
2019-02-17T12:23:03.085Z,25.87
2019-02-17T12:25:33.257Z,25.90
2019-02-17T12:28:06.201Z,29.67
2019-02-17T12:30:34.971Z,29.67
2019-02-17T12:33:03.409Z,30.47
2019-02-17T12:35:31.894Z,26.53
2019-02-17T12:38:00.370Z,28.00
2019-02-17T12:40:28.829Z,29.10
2019-02-17T12:42:57.665Z,29.40
2019-02-17T12:45:26.208Z,30.30
2019-02-17T12:47:58.210Z,31.97
2019-02-17T12:50:24.928Z,29.23
2019-02-17T12:52:53.462Z,28.53
2019-02-17T12:55:21.893Z,31.47
2019-02-17T12:57:50.487Z,30.70
2019-02-17T13:00:19.058Z,24.30
2019-02-17T13:02:47.498Z,28.27
2019-02-17T13:05:16.063Z,27.73
2019-02-17T13:07:44.855Z,28.00
2019-02-17T13:10:13.575Z,28.27
2019-02-17T13:12:42.052Z,25.10
2019-02-17T13:15:12.229Z,28.23
2019-02-17T13:17:40.661Z,26.00
2019-02-17T13:20:11.980Z,29.30
2019-02-17T13:22:40.481Z,28.10
2019-02-17T13:25:11.889Z,28.40
2019-02-17T13:27:41.201Z,27.90
2019-02-17T13:30:21.431Z,28.43
2019-02-17T13:32:50.059Z,32.60
2019-02-17T13:35:20.596Z,31.10
2019-02-17T13:37:49.026Z,25.10
2019-02-17T13:40:17.564Z,29.57
2019-02-17T13:42:46.105Z,30.80
2019-02-17T13:45:17.074Z,26.07
2019-02-17T13:47:45.590Z,27.93
2019-02-17T13:50:16.040Z,27.70
2019-02-17T13:52:44.759Z,25.00
2019-02-17T13:55:13.747Z,28.83
2019-02-17T13:57:42.189Z,25.67
2019-02-17T14:00:19.148Z,28.10
2019-02-17T14:02:48.621Z,26.60
2019-02-17T14:05:17.135Z,28.20
2019-02-17T14:07:45.700Z,27.20
2019-02-17T14:10:14.687Z,29.53
2019-02-17T14:12:43.297Z,25.90
2019-02-17T14:15:19.772Z,24.97
2019-02-17T14:17:48.193Z,36.20
2019-02-17T14:20:16.699Z,28.70
2019-02-17T14:22:45.631Z,23.77
2019-02-17T14:25:14.433Z,26.00
2019-02-17T14:27:42.866Z,25.20
2019-02-17T14:30:14.009Z,23.93
2019-02-17T14:32:42.787Z,25.20
2019-02-17T14:35:11.364Z,26.30
2019-02-17T14:37:40.879Z,24.63
2019-02-17T14:40:11.442Z,26.17
2019-02-17T14:42:39.878Z,25.00
2019-02-17T14:45:13.024Z,26.57
2019-02-17T14:47:41.756Z,24.83
2019-02-17T14:50:10.741Z,31.57
2019-02-17T14:52:39.212Z,23.07
2019-02-17T14:55:09.490Z,21.80
2019-02-17T14:57:38.250Z,23.30
2019-02-17T15:00:12.478Z,37.03
2019-02-17T15:02:40.931Z,26.23
2019-02-17T15:05:10.529Z,32.67
2019-02-17T15:07:38.983Z,29.43
2019-02-17T15:10:11.827Z,27.90
2019-02-17T15:12:40.446Z,32.63
2019-02-17T15:15:14.403Z,30.07
2019-02-17T15:17:42.838Z,31.37
2019-02-17T15:20:16.221Z,28.40
2019-02-17T15:22:45.086Z,29.83
2019-02-17T15:25:13.620Z,29.10
2019-02-17T15:27:42.150Z,35.97
2019-02-17T15:30:17.639Z,26.57
2019-02-17T15:32:45.549Z,23.93
2019-02-17T15:35:14.190Z,27.63
2019-02-17T15:37:43.624Z,28.90
2019-02-17T15:40:14.345Z,26.33
2019-02-17T15:42:43.471Z,31.57
2019-02-17T15:45:13.742Z,33.87
2019-02-17T15:47:43.154Z,30.47
2019-02-17T15:50:14.135Z,32.07
2019-02-17T15:52:42.963Z,34.30
2019-02-17T15:55:13.601Z,28.97
2019-02-17T15:57:42.346Z,32.57
2019-02-17T16:00:15.729Z,33.50
2019-02-17T16:02:44.381Z,29.30
2019-02-17T16:05:12.952Z,27.43
2019-02-17T16:07:41.498Z,29.87
2019-02-17T16:10:15.017Z,34.53
2019-02-17T16:12:43.461Z,35.83
2019-02-17T16:15:17.370Z,43.80
2019-02-17T16:17:45.805Z,44.00
2019-02-17T16:20:15.163Z,34.80
2019-02-17T16:22:43.796Z,39.47
2019-02-17T16:25:12.950Z,31.00
2019-02-17T16:27:41.393Z,32.37
2019-02-17T16:30:49.775Z,30.93
2019-02-17T16:33:18.211Z,29.80
2019-02-17T16:35:46.651Z,32.70
2019-02-17T16:38:15.111Z,46.27
2019-02-17T16:40:43.540Z,35.23
2019-02-17T16:43:12.303Z,43.90
2019-02-17T16:45:40.860Z,31.10
2019-02-17T16:48:09.576Z,32.73
2019-02-17T16:50:38.009Z,35.83
2019-02-17T16:53:25.670Z,32.73
2019-02-17T16:55:54.096Z,41.43
2019-02-17T16:58:22.525Z,28.33
2019-02-17T17:01:32.716Z,30.97
2019-02-17T17:04:20.385Z,35.33
2019-02-17T17:06:48.974Z,50.80
2019-02-17T17:09:17.703Z,32.80
2019-02-17T17:12:05.980Z,29.30
2019-02-17T17:14:34.414Z,38.60
2019-02-17T17:17:22.178Z,34.50
2019-02-17T17:19:50.952Z,31.60
2019-02-17T17:22:21.533Z,32.33
2019-02-17T17:27:23.992Z,33.93
2019-02-17T17:30:11.808Z,40.00
2019-02-17T17:32:59.804Z,37.73
2019-02-17T17:35:28.322Z,25.40
2019-02-17T17:38:16.042Z,23.83
2019-02-17T17:40:44.538Z,25.60
2019-02-17T17:43:32.342Z,29.60
2019-02-17T17:48:54.556Z,25.10
2019-02-17T17:51:42.385Z,29.07
2019-02-17T17:54:30.526Z,20.43
2019-02-17T18:00:12.438Z,26.23
2019-02-17T18:03:00.196Z,26.30
2019-02-17T18:05:48.147Z,23.50
2019-02-17T18:11:29.675Z,26.00
2019-02-17T18:14:17.504Z,33.43
2019-02-17T18:16:57.785Z,25.83
2019-02-17T18:22:39.319Z,34.60
2019-02-17T18:25:48.013Z,38.17
2019-02-17T18:28:17.937Z,39.17
2019-02-17T18:31:05.875Z,43.00
2019-02-17T18:33:53.692Z,29.63
2019-02-17T18:42:10.305Z,37.40
2019-02-17T18:44:58.327Z,33.17
2019-02-17T18:48:06.722Z,33.03
2019-02-17T18:50:59.211Z,35.10
2019-02-17T18:56:51.023Z,30.53
2019-02-17T18:59:59.528Z,30.03
2019-02-17T19:02:47.388Z,40.43
2019-02-17T19:05:35.141Z,30.17
2019-02-17T19:08:23.381Z,27.63
2019-02-17T19:11:11.509Z,28.07
2019-02-17T19:13:59.756Z,23.90
2019-02-17T19:16:47.731Z,26.77
2019-02-17T19:19:35.425Z,23.37
2019-02-17T19:22:23.099Z,22.30
2019-02-17T19:25:11.131Z,27.40
2019-02-17T19:27:58.809Z,21.80
2019-02-17T19:30:27.824Z,24.20
2019-02-17T19:33:15.923Z,25.90
2019-02-17T19:36:04.111Z,23.97
2019-02-17T19:38:32.709Z,25.07
2019-02-17T19:41:20.861Z,18.00
2019-02-17T19:44:08.674Z,35.17
2019-02-17T19:50:11.913Z,40.30
2019-02-17T19:53:00.152Z,36.50
2019-02-17T19:55:48.507Z,24.97
2019-02-17T19:58:36.298Z,22.60
2019-02-17T20:04:36.941Z,24.07
2019-02-17T20:10:18.001Z,33.70
2019-02-17T20:12:47.422Z,22.67
2019-02-17T20:18:44.016Z,25.83
2019-02-17T20:21:31.679Z,31.33
2019-02-17T20:24:41.051Z,28.40
2019-02-17T20:27:09.533Z,31.33
2019-02-17T20:29:38.088Z,28.13
2019-02-17T20:34:59.901Z,20.37
2019-02-17T20:37:47.667Z,31.63
2019-02-17T20:40:56.062Z,27.13
2019-02-17T20:43:43.955Z,23.73
2019-02-17T20:46:12.902Z,25.23
2019-02-17T20:48:41.822Z,24.00
2019-02-17T20:51:12.227Z,28.10
2019-02-17T20:53:41.024Z,23.63
2019-02-17T20:56:09.663Z,66.30
2019-02-17T20:58:40.288Z,28.07
2019-02-17T21:01:09.845Z,28.80
2019-02-17T21:03:38.408Z,24.63
2019-02-17T21:06:12.923Z,29.70
2019-02-17T21:08:56.807Z,26.80
2019-02-17T21:11:25.430Z,25.73
2019-02-17T21:14:13.141Z,25.20
2019-02-17T21:19:55.668Z,27.57
2019-02-17T21:23:04.334Z,25.67
2019-02-17T21:25:52.046Z,25.40
2019-02-17T21:28:20.825Z,31.53
2019-02-17T21:31:08.465Z,29.87
2019-02-17T21:33:56.322Z,31.27
2019-02-17T21:36:24.785Z,28.67
2019-02-17T21:38:53.236Z,27.80
2019-02-17T21:44:16.781Z,30.53
2019-02-17T21:46:46.681Z,32.50
2019-02-17T21:49:15.113Z,27.83
2019-02-17T21:51:43.670Z,30.73
2019-02-17T21:54:12.096Z,27.87
2019-02-17T21:56:40.529Z,29.03
2019-02-17T21:59:08.996Z,37.90
2019-02-17T22:01:37.745Z,31.53
2019-02-17T22:04:06.176Z,40.07
2019-02-17T22:06:34.725Z,39.57
2019-02-17T22:11:52.265Z,32.23
2019-02-17T22:14:20.706Z,32.80
2019-02-17T22:16:49.420Z,31.40
2019-02-17T22:19:17.878Z,33.10
2019-02-17T22:21:46.310Z,38.43
2019-02-17T22:24:14.834Z,27.90
2019-02-17T22:26:43.293Z,27.90
2019-02-17T22:29:12.852Z,24.40
2019-02-17T22:32:01.322Z,27.90
2019-02-17T22:34:30.089Z,34.70
2019-02-17T22:36:58.525Z,26.03
2019-02-17T22:39:27.261Z,23.80
2019-02-17T22:41:56.045Z,25.27
2019-02-17T22:44:24.834Z,23.60
2019-02-17T22:47:12.715Z,25.50
2019-02-17T22:49:41.126Z,32.70
2019-02-17T23:01:10.689Z,28.60
2019-02-17T23:03:58.665Z,26.97
2019-02-17T23:06:53.787Z,28.03
2019-02-17T23:09:35.970Z,47.43
2019-02-17T23:12:04.475Z,32.67
2019-02-17T23:14:32.911Z,29.63
2019-02-17T23:19:35.042Z,30.83
2019-02-17T23:22:03.481Z,27.13
2019-02-17T23:24:32.029Z,44.50
2019-02-17T23:27:19.807Z,30.50
2019-02-17T23:29:48.377Z,30.73
2019-02-17T23:32:16.840Z,27.63
2019-02-17T23:34:45.365Z,31.73
2019-02-17T23:37:13.835Z,25.47
2019-02-17T23:39:42.269Z,22.00
2019-02-17T23:42:10.798Z,25.70
2019-02-17T23:44:39.258Z,31.07
2019-02-17T23:47:07.690Z,28.77
2019-02-17T23:49:36.121Z,24.17
2019-02-17T23:52:24.053Z,25.33
2019-02-17T23:54:52.791Z,26.53
2019-02-17T23:57:21.233Z,20.53
2019-02-17T23:59:50.267Z,18.50
